Terminal Aerodrome Forecast
Issued by NWS

Home | Current Version | Previous Version | Text Only | Print | Product List | Glossary On
Versions: 1 2 3 4 5 6 7 8 9 10 11 12 13 14 15 16 17 18
000
FTUS41 KBTV 291730
TAFRUT
TAF
KRUT 291730Z 2918/3018 17006KT P6SM BKN150
     FM300000 15010G20KT P6SM OVC060
     FM300500 15009KT 2SM -SN BR OVC025
     FM301200 18004KT 1SM -SN BR OVC009
     FM301700 31006KT 2SM -SN BR OVC008
      AMD LTD TO CLD VIS AND WIND=

USA.gov is the U.S. government's official web portal to all federal, state and local government web resources and services.